sensor_id;sensor_type;location;lat;lon;timestamp;pressure;altitude;pressure_sealevel;temperature;humidity
8051;BME280;4068;42.158;24.732;2023-02-14T00:01:47;101095.47;;;2.29;80.62
8051;BME280;4068;42.158;24.732;2023-02-14T00:04:13;101101.72;;;2.21;80.45
8051;BME280;4068;42.158;24.732;2023-02-14T00:06:39;101072.44;;;2.04;80.61
8051;BME280;4068;42.158;24.732;2023-02-14T00:09:11;101101.78;;;2.18;80.23
8051;BME280;4068;42.158;24.732;2023-02-14T00:11:37;101097.34;;;2.22;81.00
8051;BME280;4068;42.158;24.732;2023-02-14T00:14:03;101092.06;;;2.23;80.71
8051;BME280;4068;42.158;24.732;2023-02-14T00:16:47;101091.25;;;2.21;80.90
8051;BME280;4068;42.158;24.732;2023-02-14T00:19:15;101089.34;;;2.30;79.54
8051;BME280;4068;42.158;24.732;2023-02-14T00:21:41;101080.78;;;2.21;79.42
8051;BME280;4068;42.158;24.732;2023-02-14T00:24:13;101114.47;;;2.38;78.42
8051;BME280;4068;42.158;24.732;2023-02-14T00:26:39;101107.44;;;2.39;78.01
8051;BME280;4068;42.158;24.732;2023-02-14T00:29:06;101112.59;;;2.44;77.63
8051;BME280;4068;42.158;24.732;2023-02-14T00:31:32;101107.31;;;2.45;77.39
8051;BME280;4068;42.158;24.732;2023-02-14T00:33:58;101105.59;;;2.44;77.12
8051;BME280;4068;42.158;24.732;2023-02-14T00:36:24;101099.53;;;2.42;76.61
8051;BME280;4068;42.158;24.732;2023-02-14T00:38:49;101088.31;;;2.37;76.95
8051;BME280;4068;42.158;24.732;2023-02-14T00:41:14;101096.09;;;2.40;77.07
8051;BME280;4068;42.158;24.732;2023-02-14T00:43:47;101070.31;;;2.21;77.23
8051;BME280;4068;42.158;24.732;2023-02-14T00:46:14;101096.09;;;2.40;77.34
8051;BME280;4068;42.158;24.732;2023-02-14T00:48:40;101101.31;;;2.40;77.66
8051;BME280;4068;42.158;24.732;2023-02-14T00:51:07;101096.13;;;2.38;77.32
8051;BME280;4068;42.158;24.732;2023-02-14T00:53:32;101102.41;;;2.31;77.34
8051;BME280;4068;42.158;24.732;2023-02-14T00:55:58;101103.22;;;2.33;78.00
8051;BME280;4068;42.158;24.732;2023-02-14T00:58:23;101098.72;;;2.40;77.68
8051;BME280;4068;42.158;24.732;2023-02-14T01:00:49;101109.13;;;2.43;76.95
8051;BME280;4068;42.158;24.732;2023-02-14T01:03:14;101107.31;;;2.45;76.31
8051;BME280;4068;42.158;24.732;2023-02-14T01:05:40;101075.31;;;2.31;76.58
8051;BME280;4068;42.158;24.732;2023-02-14T01:08:05;101095.06;;;2.47;76.07
8051;BME280;4068;42.158;24.732;2023-02-14T01:10:31;101100.13;;;2.55;75.24
8051;BME280;4068;42.158;24.732;2023-02-14T01:12:56;101087.88;;;2.57;74.44
8051;BME280;4068;42.158;24.732;2023-02-14T01:15:22;101067.19;;;2.45;74.16
8051;BME280;4068;42.158;24.732;2023-02-14T01:17:47;101095.69;;;2.58;73.92
8051;BME280;4068;42.158;24.732;2023-02-14T01:20:12;101084.47;;;2.52;74.44
8051;BME280;4068;42.158;24.732;2023-02-14T01:22:39;101085.34;;;2.52;74.77
8051;BME280;4068;42.158;24.732;2023-02-14T01:25:05;101086.31;;;2.48;74.88
8051;BME280;4068;42.158;24.732;2023-02-14T01:27:30;101079.41;;;2.44;75.14
8051;BME280;4068;42.158;24.732;2023-02-14T01:29:56;101088.19;;;2.41;74.84
8051;BME280;4068;42.158;24.732;2023-02-14T01:32:21;101078.75;;;2.34;75.78
8051;BME280;4068;42.158;24.732;2023-02-14T01:34:46;101067.44;;;2.32;75.22
8051;BME280;4068;42.158;24.732;2023-02-14T01:37:12;101040.75;;;2.16;74.83
8051;BME280;4068;42.158;24.732;2023-02-14T01:39:38;101059.81;;;2.23;74.89
8051;BME280;4068;42.158;24.732;2023-02-14T01:42:04;101078.72;;;2.36;75.76
8051;BME280;4068;42.158;24.732;2023-02-14T01:47:04;101062.06;;;2.40;75.22
8051;BME280;4068;42.158;24.732;2023-02-14T01:49:46;101042.06;;;2.36;74.97
8051;BME280;4068;42.158;24.732;2023-02-14T01:52:19;101082.56;;;2.60;73.88
8051;BME280;4068;42.158;24.732;2023-02-14T01:54:57;101069.53;;;2.57;73.82
8051;BME280;4068;42.158;24.732;2023-02-14T01:57:29;101071.06;;;2.66;73.62
8051;BME280;4068;42.158;24.732;2023-02-14T01:59:58;101060.44;;;2.72;72.52
8051;BME280;4068;42.158;24.732;2023-02-14T02:02:45;101049.97;;;2.72;72.61
8051;BME280;4068;42.158;24.732;2023-02-14T02:05:11;101052.44;;;2.78;72.38
8051;BME280;4068;42.158;24.732;2023-02-14T02:07:37;101027.28;;;2.71;72.30
8051;BME280;4068;42.158;24.732;2023-02-14T02:10:05;101040.03;;;2.85;72.62
8051;BME280;4068;42.158;24.732;2023-02-14T02:12:32;101039.91;;;2.91;71.38
8051;BME280;4068;42.158;24.732;2023-02-14T02:15:01;101034.50;;;2.97;70.99
8051;BME280;4068;42.158;24.732;2023-02-14T02:21:01;101038.56;;;3.09;69.54
8051;BME280;4068;42.158;24.732;2023-02-14T02:23:40;101034.16;;;3.11;69.12
8051;BME280;4068;42.158;24.732;2023-02-14T02:26:21;101039.28;;;3.16;69.25
8051;BME280;4068;42.158;24.732;2023-02-14T02:29:21;101032.25;;;3.16;69.26
8051;BME280;4068;42.158;24.732;2023-02-14T02:40:21;101023.38;;;3.22;68.40
8051;BME280;4068;42.158;24.732;2023-02-14T02:48:52;101029.53;;;3.21;68.89
8051;BME280;4068;42.158;24.732;2023-02-14T02:51:50;101032.97;;;3.23;69.02
8051;BME280;4068;42.158;24.732;2023-02-14T02:54:41;101024.97;;;3.27;69.03
8051;BME280;4068;42.158;24.732;2023-02-14T02:57:18;101029.41;;;3.25;68.78
8051;BME280;4068;42.158;24.732;2023-02-14T02:59:45;101024.25;;;3.22;68.75
8051;BME280;4068;42.158;24.732;2023-02-14T03:02:12;101011.22;;;3.19;69.17
8051;BME280;4068;42.158;24.732;2023-02-14T03:04:44;101009.59;;;3.15;69.16
8051;BME280;4068;42.158;24.732;2023-02-14T03:07:18;100984.66;;;2.99;69.25
8051;BME280;4068;42.158;24.732;2023-02-14T03:21:58;100997.84;;;2.96;69.95
8051;BME280;4068;42.158;24.732;2023-02-14T03:24:10;100990.16;;;2.89;69.94
8051;BME280;4068;42.158;24.732;2023-02-14T03:26:48;100985.97;;;2.82;70.38
8051;BME280;4068;42.158;24.732;2023-02-14T03:32:23;100987.84;;;2.77;71.54
8051;BME280;4068;42.158;24.732;2023-02-14T03:35:20;100987.78;;;2.79;71.94
8051;BME280;4068;42.158;24.732;2023-02-14T03:38:06;100978.91;;;2.84;72.16
8051;BME280;4068;42.158;24.732;2023-02-14T03:40:54;100995.41;;;2.89;70.54
8051;BME280;4068;42.158;24.732;2023-02-14T03:43:48;100987.53;;;2.89;70.96
8051;BME280;4068;42.158;24.732;2023-02-14T03:46:23;100960.88;;;2.72;69.81
8051;BME280;4068;42.158;24.732;2023-02-14T03:48:52;100993.66;;;2.88;70.24
8051;BME280;4068;42.158;24.732;2023-02-14T03:51:21;100990.13;;;2.91;69.22
8051;BME280;4068;42.158;24.732;2023-02-14T03:53:50;100975.53;;;2.79;69.58
8051;BME280;4068;42.158;24.732;2023-02-14T03:59:11;100987.97;;;2.72;70.07
8051;BME280;4068;42.158;24.732;2023-02-14T04:01:54;101001.75;;;2.79;70.74
8051;BME280;4068;42.158;24.732;2023-02-14T04:04:24;101013.19;;;2.75;70.66
8051;BME280;4068;42.158;24.732;2023-02-14T04:06:51;101002.66;;;2.78;70.51
8051;BME280;4068;42.158;24.732;2023-02-14T04:09:17;100999.06;;;2.82;70.09
8051;BME280;4068;42.158;24.732;2023-02-14T04:11:42;100952.38;;;2.64;70.32
8051;BME280;4068;42.158;24.732;2023-02-14T04:14:10;100947.16;;;2.62;69.73
8051;BME280;4068;42.158;24.732;2023-02-14T04:16:37;100982.47;;;2.82;70.18
8051;BME280;4068;42.158;24.732;2023-02-14T04:19:21;100977.19;;;2.83;69.68
8051;BME280;4068;42.158;24.732;2023-02-14T04:21:50;100972.16;;;2.75;70.22
8051;BME280;4068;42.158;24.732;2023-02-14T04:24:16;100936.75;;;2.59;70.77
8051;BME280;4068;42.158;24.732;2023-02-14T04:26:41;100942.91;;;2.58;70.60
8051;BME280;4068;42.158;24.732;2023-02-14T04:29:21;100961.81;;;2.69;70.43
8051;BME280;4068;42.158;24.732;2023-02-14T04:31:47;100940.41;;;2.52;70.57
8051;BME280;4068;42.158;24.732;2023-02-14T04:34:13;100960.28;;;2.61;70.77
8051;BME280;4068;42.158;24.732;2023-02-14T04:36:39;100922.47;;;2.36;70.77
8051;BME280;4068;42.158;24.732;2023-02-14T04:39:04;100946.47;;;2.55;70.39
8051;BME280;4068;42.158;24.732;2023-02-14T04:41:30;100950.84;;;2.53;70.25
8051;BME280;4068;42.158;24.732;2023-02-14T04:43:55;100912.75;;;2.41;69.72
8051;BME280;4068;42.158;24.732;2023-02-14T04:46:21;100936.97;;;2.51;69.90
8051;BME280;4068;42.158;24.732;2023-02-14T04:48:46;100928.16;;;2.54;69.67
8051;BME280;4068;42.158;24.732;2023-02-14T04:51:11;100916.22;;;2.42;68.81
8051;BME280;4068;42.158;24.732;2023-02-14T04:53:37;100925.47;;;2.57;68.07
8051;BME280;4068;42.158;24.732;2023-02-14T04:56:06;100922.88;;;2.55;67.45
8051;BME280;4068;42.158;24.732;2023-02-14T04:58:31;100928.00;;;2.60;67.60
8051;BME280;4068;42.158;24.732;2023-02-14T05:00:56;100925.34;;;2.62;67.44
8051;BME280;4068;42.158;24.732;2023-02-14T05:03:22;100926.22;;;2.61;67.52
8051;BME280;4068;42.158;24.732;2023-02-14T05:05:47;100902.16;;;2.46;67.81
8051;BME280;4068;42.158;24.732;2023-02-14T05:08:13;100882.41;;;2.33;68.20
8051;BME280;4068;42.158;24.732;2023-02-14T05:10:39;100908.28;;;2.47;69.03
8051;BME280;4068;42.158;24.732;2023-02-14T05:13:04;100897.00;;;2.43;69.76
8051;BME280;4068;42.158;24.732;2023-02-14T05:15:30;100896.16;;;2.42;69.92
8051;BME280;4068;42.158;24.732;2023-02-14T05:17:55;100864.34;;;2.22;69.85
8051;BME280;4068;42.158;24.732;2023-02-14T05:20:26;100901.56;;;2.35;70.23
8051;BME280;4068;42.158;24.732;2023-02-14T05:22:51;100911.06;;;2.39;70.41
8051;BME280;4068;42.158;24.732;2023-02-14T05:25:16;100908.53;;;2.36;70.58
8051;BME280;4068;42.158;24.732;2023-02-14T05:27:42;100912.88;;;2.37;71.02
8051;BME280;4068;42.158;24.732;2023-02-14T05:30:08;100918.78;;;2.44;71.09
8051;BME280;4068;42.158;24.732;2023-02-14T05:32:34;100925.59;;;2.51;70.97
8051;BME280;4068;42.158;24.732;2023-02-14T05:34:59;100919.50;;;2.50;70.95
8051;BME280;4068;42.158;24.732;2023-02-14T05:37:24;100903.06;;;2.44;71.56
8051;BME280;4068;42.158;24.732;2023-02-14T05:39:50;100906.53;;;2.46;71.12
8051;BME280;4068;42.158;24.732;2023-02-14T05:42:15;100888.47;;;2.35;70.78
8051;BME280;4068;42.158;24.732;2023-02-14T05:44:41;100922.88;;;2.55;70.96
8051;BME280;4068;42.158;24.732;2023-02-14T05:47:06;100900.50;;;2.42;71.62
8051;BME280;4068;42.158;24.732;2023-02-14T05:49:33;100918.63;;;2.51;71.79
8051;BME280;4068;42.158;24.732;2023-02-14T05:51:59;100909.72;;;2.58;71.61
8051;BME280;4068;42.158;24.732;2023-02-14T05:54:24;100911.06;;;2.73;70.92
8051;BME280;4068;42.158;24.732;2023-02-14T05:56:49;100865.94;;;2.62;71.31
8051;BME280;4068;42.158;24.732;2023-02-14T05:59:15;100867.50;;;2.69;71.33
8051;BME280;4068;42.158;24.732;2023-02-14T06:01:40;100895.41;;;3.03;69.78
8051;BME280;4068;42.158;24.732;2023-02-14T06:04:06;100906.41;;;3.16;69.37
8051;BME280;4068;42.158;24.732;2023-02-14T06:06:31;100904.25;;;3.32;67.94
8051;BME280;4068;42.158;24.732;2023-02-14T06:08:56;100908.16;;;3.47;66.96
8051;BME280;4068;42.158;24.732;2023-02-14T06:11:22;100896.78;;;3.48;66.51
8051;BME280;4068;42.158;24.732;2023-02-14T06:13:47;100903.41;;;3.60;65.31
8051;BME280;4068;42.158;24.732;2023-02-14T06:16:13;100915.94;;;3.80;65.09
8051;BME280;4068;42.158;24.732;2023-02-14T06:18:38;100884.69;;;3.72;64.48
8051;BME280;4068;42.158;24.732;2023-02-14T06:21:04;100910.91;;;4.02;63.76
8051;BME280;4068;42.158;24.732;2023-02-14T06:23:29;100918.47;;;4.11;63.38
8051;BME280;4068;42.158;24.732;2023-02-14T06:25:54;100892.47;;;4.04;62.92
8051;BME280;4068;42.158;24.732;2023-02-14T06:28:20;100915.31;;;4.28;62.74
8051;BME280;4068;42.158;24.732;2023-02-14T06:30:46;100887.19;;;4.32;62.19
8051;BME280;4068;42.158;24.732;2023-02-14T06:33:11;100909.38;;;4.48;61.93
8051;BME280;4068;42.158;24.732;2023-02-14T06:35:36;100905.69;;;4.54;61.50
8051;BME280;4068;42.158;24.732;2023-02-14T06:38:02;100910.59;;;4.65;61.18
8051;BME280;4068;42.158;24.732;2023-02-14T06:40:27;100894.56;;;4.73;60.42
8051;BME280;4068;42.158;24.732;2023-02-14T06:42:53;100895.91;;;4.84;60.42
8051;BME280;4068;42.158;24.732;2023-02-14T06:45:18;100901.81;;;4.91;60.24
8051;BME280;4068;42.158;24.732;2023-02-14T06:47:44;100905.03;;;4.99;60.03
8051;BME280;4068;42.158;24.732;2023-02-14T06:50:10;100913.38;;;5.11;59.52
8051;BME280;4068;42.158;24.732;2023-02-14T06:52:36;100917.50;;;5.18;59.07
8051;BME280;4068;42.158;24.732;2023-02-14T06:55:02;100894.75;;;5.17;59.20
8051;BME280;4068;42.158;24.732;2023-02-14T06:57:27;100913.19;;;5.41;58.83
8051;BME280;4068;42.158;24.732;2023-02-14T06:59:52;100910.25;;;5.48;58.12
8051;BME280;4068;42.158;24.732;2023-02-14T07:02:18;100879.75;;;5.43;57.95
8051;BME280;4068;42.158;24.732;2023-02-14T07:04:43;100909.63;;;5.65;57.87
8051;BME280;4068;42.158;24.732;2023-02-14T07:07:09;100907.56;;;5.74;57.54
8051;BME280;4068;42.158;24.732;2023-02-14T07:09:34;100902.28;;;5.74;57.41
8051;BME280;4068;42.158;24.732;2023-02-14T07:12:00;100875.28;;;5.68;57.42
8051;BME280;4068;42.158;24.732;2023-02-14T07:14:25;100901.38;;;5.97;57.37
8051;BME280;4068;42.158;24.732;2023-02-14T07:16:51;100900.94;;;6.09;56.89
8051;BME280;4068;42.158;24.732;2023-02-14T07:19:16;100899.63;;;6.19;56.67
8051;BME280;4068;42.158;24.732;2023-02-14T07:21:42;100882.31;;;6.14;56.46
8051;BME280;4068;42.158;24.732;2023-02-14T07:24:07;100883.81;;;6.19;56.65
8051;BME280;4068;42.158;24.732;2023-02-14T07:26:32;100898.16;;;6.34;56.53
8051;BME280;4068;42.158;24.732;2023-02-14T07:28:58;100886.38;;;6.43;56.17
8051;BME280;4068;42.158;24.732;2023-02-14T07:31:24;100903.19;;;6.61;55.59
8051;BME280;4068;42.158;24.732;2023-02-14T07:33:50;100888.03;;;6.66;56.11
8051;BME280;4068;42.158;24.732;2023-02-14T07:36:16;100885.06;;;6.74;55.32
8051;BME280;4068;42.158;24.732;2023-02-14T07:38:41;100865.28;;;6.64;55.16
8051;BME280;4068;42.158;24.732;2023-02-14T07:41:07;100882.94;;;6.82;55.02
8051;BME280;4068;42.158;24.732;2023-02-14T07:43:32;100889.69;;;6.89;55.24
8051;BME280;4068;42.158;24.732;2023-02-14T07:46:01;100886.13;;;6.90;55.01
8051;BME280;4068;42.158;24.732;2023-02-14T07:48:27;100868.06;;;6.81;55.46
8051;BME280;4068;42.158;24.732;2023-02-14T07:50:53;100874.72;;;6.90;55.38
8051;BME280;4068;42.158;24.732;2023-02-14T07:53:22;100880.00;;;6.90;55.22
8051;BME280;4068;42.158;24.732;2023-02-14T07:55:51;100883.03;;;7.01;55.38
8051;BME280;4068;42.158;24.732;2023-02-14T07:58:17;100854.94;;;7.00;55.39
8051;BME280;4068;42.158;24.732;2023-02-14T08:00:43;100889.69;;;7.29;55.57
8051;BME280;4068;42.158;24.732;2023-02-14T08:03:11;100881.16;;;7.43;55.11
8051;BME280;4068;42.158;24.732;2023-02-14T08:05:36;100880.09;;;7.47;54.27
8051;BME280;4068;42.158;24.732;2023-02-14T08:08:01;100856.59;;;7.41;54.01
8051;BME280;4068;42.158;24.732;2023-02-14T08:10:27;100881.00;;;7.65;54.12
8051;BME280;4068;42.158;24.732;2023-02-14T08:12:52;100892.84;;;7.75;54.48
8051;BME280;4068;42.158;24.732;2023-02-14T08:15:33;100889.97;;;7.80;54.44
8051;BME280;4068;42.158;24.732;2023-02-14T08:18:18;100898.06;;;7.77;53.95
8051;BME280;4068;42.158;24.732;2023-02-14T08:20:45;100872.78;;;7.71;54.21
8051;BME280;4068;42.158;24.732;2023-02-14T08:23:11;100885.34;;;7.85;54.24
8051;BME280;4068;42.158;24.732;2023-02-14T08:25:36;100896.38;;;7.93;53.81
8051;BME280;4068;42.158;24.732;2023-02-14T08:28:03;100902.72;;;8.08;53.48
8051;BME280;4068;42.158;24.732;2023-02-14T08:30:29;100897.78;;;8.20;53.22
8051;BME280;4068;42.158;24.732;2023-02-14T08:32:55;100898.53;;;8.22;53.12
8051;BME280;4068;42.158;24.732;2023-02-14T08:35:20;100901.13;;;8.23;52.63
8051;BME280;4068;42.158;24.732;2023-02-14T08:37:46;100900.94;;;8.26;53.03
8051;BME280;4068;42.158;24.732;2023-02-14T08:40:11;100892.81;;;8.31;53.07
8051;BME280;4068;42.158;24.732;2023-02-14T08:42:37;100881.09;;;8.37;52.68
8051;BME280;4068;42.158;24.732;2023-02-14T08:45:03;100876.00;;;8.51;52.03
8051;BME280;4068;42.158;24.732;2023-02-14T08:47:30;100888.97;;;8.73;51.54
8051;BME280;4068;42.158;24.732;2023-02-14T08:50:00;100893.31;;;8.74;51.49
8051;BME280;4068;42.158;24.732;2023-02-14T08:52:26;100900.63;;;8.87;51.06
8051;BME280;4068;42.158;24.732;2023-02-14T08:54:52;100888.81;;;8.94;50.97
8051;BME280;4068;42.158;24.732;2023-02-14T08:57:17;100878.13;;;8.95;51.01
8051;BME280;4068;42.158;24.732;2023-02-14T08:59:43;100862.41;;;8.92;50.44
8051;BME280;4068;42.158;24.732;2023-02-14T09:02:11;100872.25;;;9.06;50.64
8051;BME280;4068;42.158;24.732;2023-02-14T09:04:38;100851.16;;;9.05;50.42
8051;BME280;4068;42.158;24.732;2023-02-14T09:07:03;100877.34;;;9.27;49.92
8051;BME280;4068;42.158;24.732;2023-02-14T09:09:30;100857.09;;;9.26;49.40
8051;BME280;4068;42.158;24.732;2023-02-14T09:11:56;100864.13;;;9.27;49.44
8051;BME280;4068;42.158;24.732;2023-02-14T09:14:21;100846.06;;;9.18;49.37
8051;BME280;4068;42.158;24.732;2023-02-14T09:16:48;100826.63;;;9.19;49.72
8051;BME280;4068;42.158;24.732;2023-02-14T09:19:14;100864.75;;;9.48;49.15
8051;BME280;4068;42.158;24.732;2023-02-14T09:21:39;100831.25;;;9.47;48.52
8051;BME280;4068;42.158;24.732;2023-02-14T09:24:05;100823.41;;;9.45;48.33
8051;BME280;4068;42.158;24.732;2023-02-14T09:26:31;100847.06;;;9.64;48.87
8051;BME280;4068;42.158;24.732;2023-02-14T09:28:56;100843.13;;;9.72;48.68
8051;BME280;4068;42.158;24.732;2023-02-14T09:31:23;100818.34;;;9.57;47.60
8051;BME280;4068;42.158;24.732;2023-02-14T09:33:49;100815.09;;;9.52;48.46
8051;BME280;4068;42.158;24.732;2023-02-14T09:36:15;100838.00;;;9.68;48.13
8051;BME280;4068;42.158;24.732;2023-02-14T09:38:40;100827.56;;;9.65;48.17
8051;BME280;4068;42.158;24.732;2023-02-14T09:41:08;100829.97;;;9.70;48.62
8051;BME280;4068;42.158;24.732;2023-02-14T09:43:38;100805.88;;;9.59;48.95
8051;BME280;4068;42.158;24.732;2023-02-14T09:46:10;100815.19;;;9.82;47.92
8051;BME280;4068;42.158;24.732;2023-02-14T09:48:43;100834.81;;;9.94;47.70
8051;BME280;4068;42.158;24.732;2023-02-14T09:51:18;100815.16;;;9.98;47.67
8051;BME280;4068;42.158;24.732;2023-02-14T09:53:45;100826.31;;;10.03;47.26
8051;BME280;4068;42.158;24.732;2023-02-14T09:56:28;100822.97;;;10.15;46.57
8051;BME280;4068;42.158;24.732;2023-02-14T10:01:41;100800.88;;;10.31;46.58
8051;BME280;4068;42.158;24.732;2023-02-14T10:12:28;100794.88;;;10.27;45.48
8051;BME280;4068;42.158;24.732;2023-02-14T10:14:59;100784.72;;;10.19;45.14
8051;BME280;4068;42.158;24.732;2023-02-14T10:17:39;100787.69;;;10.29;44.87
8051;BME280;4068;42.158;24.732;2023-02-14T10:20:21;100795.41;;;10.34;45.07
8051;BME280;4068;42.158;24.732;2023-02-14T10:22:59;100746.50;;;10.24;44.83
8051;BME280;4068;42.158;24.732;2023-02-14T10:25:35;100768.81;;;10.50;44.98
8051;BME280;4068;42.158;24.732;2023-02-14T10:28:04;100784.19;;;10.59;45.44
8051;BME280;4068;42.158;24.732;2023-02-14T10:30:37;100770.81;;;10.61;44.82
8051;BME280;4068;42.158;24.732;2023-02-14T10:33:16;100790.03;;;10.64;44.56
8051;BME280;4068;42.158;24.732;2023-02-14T10:35:51;100775.19;;;10.62;44.50
8051;BME280;4068;42.158;24.732;2023-02-14T10:38:33;100776.03;;;10.62;44.57
8051;BME280;4068;42.158;24.732;2023-02-14T10:50:01;100746.16;;;10.59;45.83
8051;BME280;4068;42.158;24.732;2023-02-14T10:57:52;100744.28;;;10.75;45.64
8051;BME280;4068;42.158;24.732;2023-02-14T11:00:20;100744.19;;;10.77;45.57
8051;BME280;4068;42.158;24.732;2023-02-14T11:02:50;100753.38;;;10.71;45.37
8051;BME280;4068;42.158;24.732;2023-02-14T11:05:26;100731.31;;;10.56;45.38
8051;BME280;4068;42.158;24.732;2023-02-14T11:07:56;100737.94;;;10.63;46.14
8051;BME280;4068;42.158;24.732;2023-02-14T11:10:26;100716.53;;;10.66;45.79
8051;BME280;4068;42.158;24.732;2023-02-14T11:12:54;100727.78;;;10.84;45.71
8051;BME280;4068;42.158;24.732;2023-02-14T11:15:34;100708.72;;;10.92;45.12
8051;BME280;4068;42.158;24.732;2023-02-14T11:18:13;100730.13;;;11.03;43.84
8051;BME280;4068;42.158;24.732;2023-02-14T11:20:41;100723.97;;;11.03;43.92
8051;BME280;4068;42.158;24.732;2023-02-14T11:23:26;100706.63;;;11.12;43.96
8051;BME280;4068;42.158;24.732;2023-02-14T11:25:56;100723.59;;;11.09;44.52
8051;BME280;4068;42.158;24.732;2023-02-14T11:28:22;100713.75;;;10.97;45.68
8051;BME280;4068;42.158;24.732;2023-02-14T11:30:49;100705.25;;;10.92;46.41
8051;BME280;4068;42.158;24.732;2023-02-14T11:35:54;100699.75;;;10.66;46.31
8051;BME280;4068;42.158;24.732;2023-02-14T11:38:29;100699.06;;;10.77;46.56
8051;BME280;4068;42.158;24.732;2023-02-14T11:40:56;100721.81;;;10.81;46.61
8051;BME280;4068;42.158;24.732;2023-02-14T11:43:35;100713.84;;;10.81;46.41
8051;BME280;4068;42.158;24.732;2023-02-14T11:48:54;100699.66;;;10.82;47.27
8051;BME280;4068;42.158;24.732;2023-02-14T11:51:29;100693.28;;;10.84;47.25
8051;BME280;4068;42.158;24.732;2023-02-14T11:53:56;100665.09;;;10.69;47.13
8051;BME280;4068;42.158;24.732;2023-02-14T11:59:36;100692.97;;;11.03;45.87
8051;BME280;4068;42.158;24.732;2023-02-14T12:04:39;100670.63;;;10.79;46.87
8051;BME280;4068;42.158;24.732;2023-02-14T12:07:25;100690.34;;;10.89;46.48
8051;BME280;4068;42.158;24.732;2023-02-14T12:12:48;100684.28;;;10.87;46.67
8051;BME280;4068;42.158;24.732;2023-02-14T12:17:52;100677.09;;;10.89;46.55
8051;BME280;4068;42.158;24.732;2023-02-14T12:20:30;100670.47;;;10.82;45.93
8051;BME280;4068;42.158;24.732;2023-02-14T12:23:22;100664.28;;;10.81;45.79
8051;BME280;4068;42.158;24.732;2023-02-14T12:26:02;100677.34;;;10.84;46.07
8051;BME280;4068;42.158;24.732;2023-02-14T12:28:35;100663.28;;;10.69;45.80
8051;BME280;4068;42.158;24.732;2023-02-14T12:31:11;100680.03;;;10.70;45.82
8051;BME280;4068;42.158;24.732;2023-02-14T12:33:37;100656.28;;;10.54;46.02
8051;BME280;4068;42.158;24.732;2023-02-14T12:36:14;100645.75;;;10.52;46.34
8051;BME280;4068;42.158;24.732;2023-02-14T12:44:48;100670.22;;;10.43;47.37
8051;BME280;4068;42.158;24.732;2023-02-14T13:01:28;100651.41;;;10.17;49.12
8051;BME280;4068;42.158;24.732;2023-02-14T13:04:38;100654.72;;;10.07;48.89
8051;BME280;4068;42.158;24.732;2023-02-14T13:07:15;100651.97;;;10.08;48.75
8051;BME280;4068;42.158;24.732;2023-02-14T13:10:13;100644.31;;;10.04;49.54
8051;BME280;4068;42.158;24.732;2023-02-14T13:12:51;100626.00;;;9.84;48.92
8051;BME280;4068;42.158;24.732;2023-02-14T13:18:52;100653.09;;;9.90;49.23
8051;BME280;4068;42.158;24.732;2023-02-14T13:21:02;100661.03;;;9.90;49.44
8051;BME280;4068;42.158;24.732;2023-02-14T13:23:44;100676.34;;;9.84;49.11
8051;BME280;4068;42.158;24.732;2023-02-14T13:26:34;100666.13;;;9.78;49.56
8051;BME280;4068;42.158;24.732;2023-02-14T13:29:10;100648.91;;;9.71;49.69
8051;BME280;4068;42.158;24.732;2023-02-14T13:31:38;100662.22;;;9.70;50.27
8051;BME280;4068;42.158;24.732;2023-02-14T13:36:34;100660.09;;;9.76;50.08
8051;BME280;4068;42.158;24.732;2023-02-14T13:39:02;100671.72;;;9.74;50.49
8051;BME280;4068;42.158;24.732;2023-02-14T13:41:29;100670.47;;;9.65;50.39
8051;BME280;4068;42.158;24.732;2023-02-14T13:44:00;100678.84;;;9.57;50.88
8051;BME280;4068;42.158;24.732;2023-02-14T13:51:47;100661.63;;;9.34;51.07
8051;BME280;4068;42.158;24.732;2023-02-14T13:54:45;100679.16;;;9.37;51.91
8051;BME280;4068;42.158;24.732;2023-02-14T14:02:54;100684.88;;;9.13;52.88
8051;BME280;4068;42.158;24.732;2023-02-14T14:21:26;100700.06;;;8.61;54.60
8051;BME280;4068;42.158;24.732;2023-02-14T14:24:21;100695.94;;;8.56;54.73
8051;BME280;4068;42.158;24.732;2023-02-14T14:26:51;100691.06;;;8.48;54.40
8051;BME280;4068;42.158;24.732;2023-02-14T14:31:57;100698.94;;;8.50;54.55
8051;BME280;4068;42.158;24.732;2023-02-14T14:34:26;100701.75;;;8.46;54.98
8051;BME280;4068;42.158;24.732;2023-02-14T14:37:15;100684.09;;;8.29;54.82
8051;BME280;4068;42.158;24.732;2023-02-14T14:39:41;100671.59;;;8.16;55.32
8051;BME280;4068;42.158;24.732;2023-02-14T14:42:14;100697.22;;;8.31;55.39
8051;BME280;4068;42.158;24.732;2023-02-14T14:44:46;100679.84;;;8.09;55.63
8051;BME280;4068;42.158;24.732;2023-02-14T14:47:24;100696.31;;;8.15;55.64
8051;BME280;4068;42.158;24.732;2023-02-14T14:49:53;100690.56;;;8.06;56.16
8051;BME280;4068;42.158;24.732;2023-02-14T14:54:54;100675.13;;;7.81;56.72
8051;BME280;4068;42.158;24.732;2023-02-14T14:57:20;100685.38;;;7.87;57.18
8051;BME280;4068;42.158;24.732;2023-02-14T14:59:45;100693.84;;;7.76;57.58
8051;BME280;4068;42.158;24.732;2023-02-14T15:02:24;100708.50;;;7.82;57.87
8051;BME280;4068;42.158;24.732;2023-02-14T15:04:56;100696.31;;;7.62;58.08
8051;BME280;4068;42.158;24.732;2023-02-14T15:07:32;100696.31;;;7.45;58.89
8051;BME280;4068;42.158;24.732;2023-02-14T15:09:59;100710.97;;;7.50;59.58
8051;BME280;4068;42.158;24.732;2023-02-14T15:12:25;100721.47;;;7.52;59.73
8051;BME280;4068;42.158;24.732;2023-02-14T15:15:15;100696.63;;;7.38;60.13
8051;BME280;4068;42.158;24.732;2023-02-14T15:17:42;100719.41;;;7.39;60.56
8051;BME280;4068;42.158;24.732;2023-02-14T15:20:16;100717.00;;;7.35;61.05
8051;BME280;4068;42.158;24.732;2023-02-14T15:22:45;100726.22;;;7.26;61.58
8051;BME280;4068;42.158;24.732;2023-02-14T15:25:32;100731.00;;;7.18;62.36
8051;BME280;4068;42.158;24.732;2023-02-14T15:27:59;100722.66;;;7.08;62.80
8051;BME280;4068;42.158;24.732;2023-02-14T15:30:33;100742.84;;;7.09;63.20
8051;BME280;4068;42.158;24.732;2023-02-14T15:33:01;100737.13;;;6.99;63.49
8051;BME280;4068;42.158;24.732;2023-02-14T15:35:31;100735.56;;;6.95;64.01
8051;BME280;4068;42.158;24.732;2023-02-14T15:37:59;100731.50;;;6.88;64.10
8051;BME280;4068;42.158;24.732;2023-02-14T15:40:27;100736.22;;;6.81;64.70
8051;BME280;4068;42.158;24.732;2023-02-14T15:42:57;100738.50;;;6.70;64.74